sensor_id;sensor_type;location;lat;lon;timestamp;temperature;humidity
16871;DHT22;8552;48.120;-1.456;2022-08-21T00:02:01;15.10;99.90
16871;DHT22;8552;48.120;-1.456;2022-08-21T00:04:26;15.10;99.90
16871;DHT22;8552;48.120;-1.456;2022-08-21T00:06:52;15.00;99.90
16871;DHT22;8552;48.120;-1.456;2022-08-21T00:09:19;15.00;99.90
16871;DHT22;8552;48.120;-1.456;2022-08-21T00:11:46;15.00;99.90
16871;DHT22;8552;48.120;-1.456;2022-08-21T00:14:13;15.00;99.90
16871;DHT22;8552;48.120;-1.456;2022-08-21T00:16:39;14.90;99.90
16871;DHT22;8552;48.120;-1.456;2022-08-21T00:19:05;14.90;99.90
16871;DHT22;8552;48.120;-1.456;2022-08-21T00:21:32;14.80;99.90
16871;DHT22;8552;48.120;-1.456;2022-08-21T00:23:58;14.80;99.90
16871;DHT22;8552;48.120;-1.456;2022-08-21T00:26:24;14.70;99.90
16871;DHT22;8552;48.120;-1.456;2022-08-21T00:28:49;14.80;99.90
16871;DHT22;8552;48.120;-1.456;2022-08-21T00:31:16;14.70;99.90
16871;DHT22;8552;48.120;-1.456;2022-08-21T00:33:43;14.60;99.90
16871;DHT22;8552;48.120;-1.456;2022-08-21T00:36:09;14.60;99.90
16871;DHT22;8552;48.120;-1.456;2022-08-21T00:38:36;14.50;99.90
16871;DHT22;8552;48.120;-1.456;2022-08-21T00:41:05;14.50;99.90
16871;DHT22;8552;48.120;-1.456;2022-08-21T00:43:34;14.50;99.90
16871;DHT22;8552;48.120;-1.456;2022-08-21T00:46:01;14.40;99.90
16871;DHT22;8552;48.120;-1.456;2022-08-21T00:48:27;14.40;99.90
16871;DHT22;8552;48.120;-1.456;2022-08-21T00:51:15;14.40;99.90
16871;DHT22;8552;48.120;-1.456;2022-08-21T00:53:45;14.40;99.90
16871;DHT22;8552;48.120;-1.456;2022-08-21T00:56:11;14.30;99.90
16871;DHT22;8552;48.120;-1.456;2022-08-21T00:58:40;14.30;99.90
16871;DHT22;8552;48.120;-1.456;2022-08-21T01:01:08;14.30;99.90
16871;DHT22;8552;48.120;-1.456;2022-08-21T01:03:35;14.20;99.90
16871;DHT22;8552;48.120;-1.456;2022-08-21T01:06:01;14.10;99.90
16871;DHT22;8552;48.120;-1.456;2022-08-21T01:08:28;14.10;99.90
16871;DHT22;8552;48.120;-1.456;2022-08-21T01:10:55;14.10;99.90
16871;DHT22;8552;48.120;-1.456;2022-08-21T01:13:23;14.10;99.90
16871;DHT22;8552;48.120;-1.456;2022-08-21T01:15:52;14.10;99.90
16871;DHT22;8552;48.120;-1.456;2022-08-21T01:18:19;14.10;99.90
16871;DHT22;8552;48.120;-1.456;2022-08-21T01:21:13;14.10;99.90
16871;DHT22;8552;48.120;-1.456;2022-08-21T01:23:42;14.10;99.90
16871;DHT22;8552;48.120;-1.456;2022-08-21T01:26:09;14.00;99.90
16871;DHT22;8552;48.120;-1.456;2022-08-21T01:28:42;14.00;99.90
16871;DHT22;8552;48.120;-1.456;2022-08-21T01:31:10;14.00;99.90
16871;DHT22;8552;48.120;-1.456;2022-08-21T01:33:38;14.00;99.90
16871;DHT22;8552;48.120;-1.456;2022-08-21T01:36:04;14.00;99.90
16871;DHT22;8552;48.120;-1.456;2022-08-21T01:38:29;13.90;99.90
16871;DHT22;8552;48.120;-1.456;2022-08-21T01:40:56;13.80;99.90
16871;DHT22;8552;48.120;-1.456;2022-08-21T01:43:22;13.80;99.90
16871;DHT22;8552;48.120;-1.456;2022-08-21T01:45:47;13.80;99.90
16871;DHT22;8552;48.120;-1.456;2022-08-21T01:48:13;13.90;99.90
16871;DHT22;8552;48.120;-1.456;2022-08-21T01:50:39;13.90;99.90
16871;DHT22;8552;48.120;-1.456;2022-08-21T01:53:05;13.80;99.90
16871;DHT22;8552;48.120;-1.456;2022-08-21T01:55:31;13.80;99.90
16871;DHT22;8552;48.120;-1.456;2022-08-21T01:57:58;13.80;99.90
16871;DHT22;8552;48.120;-1.456;2022-08-21T02:00:24;13.80;99.90
16871;DHT22;8552;48.120;-1.456;2022-08-21T02:02:51;13.90;99.90
16871;DHT22;8552;48.120;-1.456;2022-08-21T02:05:17;13.80;99.90
16871;DHT22;8552;48.120;-1.456;2022-08-21T02:07:47;13.90;99.90
16871;DHT22;8552;48.120;-1.456;2022-08-21T02:10:17;13.90;99.90
16871;DHT22;8552;48.120;-1.456;2022-08-21T02:12:44;13.80;99.90
16871;DHT22;8552;48.120;-1.456;2022-08-21T02:15:10;13.80;99.90
16871;DHT22;8552;48.120;-1.456;2022-08-21T02:17:45;13.80;99.90
16871;DHT22;8552;48.120;-1.456;2022-08-21T02:20:18;13.80;99.90
16871;DHT22;8552;48.120;-1.456;2022-08-21T02:22:43;13.70;99.90
16871;DHT22;8552;48.120;-1.456;2022-08-21T02:25:11;13.70;99.90
16871;DHT22;8552;48.120;-1.456;2022-08-21T02:27:45;13.70;99.90
16871;DHT22;8552;48.120;-1.456;2022-08-21T02:30:19;13.70;99.90
16871;DHT22;8552;48.120;-1.456;2022-08-21T02:32:45;13.60;99.90
16871;DHT22;8552;48.120;-1.456;2022-08-21T02:35:11;13.60;99.90
16871;DHT22;8552;48.120;-1.456;2022-08-21T02:38:10;13.60;99.90
16871;DHT22;8552;48.120;-1.456;2022-08-21T02:40:36;13.60;99.90
16871;DHT22;8552;48.120;-1.456;2022-08-21T02:43:04;13.50;99.90
16871;DHT22;8552;48.120;-1.456;2022-08-21T02:45:31;13.50;99.90
16871;DHT22;8552;48.120;-1.456;2022-08-21T02:47:59;13.40;99.90
16871;DHT22;8552;48.120;-1.456;2022-08-21T02:50:29;13.50;99.90
16871;DHT22;8552;48.120;-1.456;2022-08-21T02:52:56;13.30;99.90
16871;DHT22;8552;48.120;-1.456;2022-08-21T02:55:23;13.30;99.90
16871;DHT22;8552;48.120;-1.456;2022-08-21T02:57:50;13.30;99.90
16871;DHT22;8552;48.120;-1.456;2022-08-21T03:00:16;13.40;99.90
16871;DHT22;8552;48.120;-1.456;2022-08-21T03:02:42;13.30;99.90
16871;DHT22;8552;48.120;-1.456;2022-08-21T03:05:10;13.30;99.90
16871;DHT22;8552;48.120;-1.456;2022-08-21T03:07:37;13.30;99.90
16871;DHT22;8552;48.120;-1.456;2022-08-21T03:10:04;13.30;99.90
16871;DHT22;8552;48.120;-1.456;2022-08-21T03:12:30;13.30;99.90
16871;DHT22;8552;48.120;-1.456;2022-08-21T03:14:56;13.40;99.90
16871;DHT22;8552;48.120;-1.456;2022-08-21T03:17:23;13.30;99.90
16871;DHT22;8552;48.120;-1.456;2022-08-21T03:19:50;13.30;99.90
16871;DHT22;8552;48.120;-1.456;2022-08-21T03:22:15;13.30;99.90
16871;DHT22;8552;48.120;-1.456;2022-08-21T03:24:41;13.40;99.90
16871;DHT22;8552;48.120;-1.456;2022-08-21T03:27:07;13.30;99.90
16871;DHT22;8552;48.120;-1.456;2022-08-21T03:29:32;13.30;99.90
16871;DHT22;8552;48.120;-1.456;2022-08-21T03:31:58;13.40;99.90
16871;DHT22;8552;48.120;-1.456;2022-08-21T03:34:24;13.40;99.90
16871;DHT22;8552;48.120;-1.456;2022-08-21T03:36:49;13.40;99.90
16871;DHT22;8552;48.120;-1.456;2022-08-21T03:39:17;13.40;99.90
16871;DHT22;8552;48.120;-1.456;2022-08-21T03:41:42;13.40;99.90
16871;DHT22;8552;48.120;-1.456;2022-08-21T03:44:08;13.30;99.90
16871;DHT22;8552;48.120;-1.456;2022-08-21T03:46:34;13.40;99.90
16871;DHT22;8552;48.120;-1.456;2022-08-21T03:49:00;13.40;99.90
16871;DHT22;8552;48.120;-1.456;2022-08-21T03:51:26;13.40;99.90
16871;DHT22;8552;48.120;-1.456;2022-08-21T03:53:52;13.50;99.90
16871;DHT22;8552;48.120;-1.456;2022-08-21T03:56:18;13.50;99.90
16871;DHT22;8552;48.120;-1.456;2022-08-21T03:58:44;13.60;99.90
16871;DHT22;8552;48.120;-1.456;2022-08-21T04:01:10;13.60;99.90
16871;DHT22;8552;48.120;-1.456;2022-08-21T04:03:37;13.70;99.90
16871;DHT22;8552;48.120;-1.456;2022-08-21T04:06:03;13.60;99.90
16871;DHT22;8552;48.120;-1.456;2022-08-21T04:08:29;13.50;99.90
16871;DHT22;8552;48.120;-1.456;2022-08-21T04:10:57;13.50;99.90
16871;DHT22;8552;48.120;-1.456;2022-08-21T04:13:24;13.50;99.90
16871;DHT22;8552;48.120;-1.456;2022-08-21T04:15:50;13.50;99.90
16871;DHT22;8552;48.120;-1.456;2022-08-21T04:18:15;13.40;99.90
16871;DHT22;8552;48.120;-1.456;2022-08-21T04:20:42;13.40;99.90
16871;DHT22;8552;48.120;-1.456;2022-08-21T04:23:08;13.40;99.90
16871;DHT22;8552;48.120;-1.456;2022-08-21T04:25:34;13.40;99.90
16871;DHT22;8552;48.120;-1.456;2022-08-21T04:28:00;13.30;99.90
16871;DHT22;8552;48.120;-1.456;2022-08-21T04:30:27;13.30;99.90
16871;DHT22;8552;48.120;-1.456;2022-08-21T04:32:53;13.30;99.90
16871;DHT22;8552;48.120;-1.456;2022-08-21T04:35:21;13.20;99.90
16871;DHT22;8552;48.120;-1.456;2022-08-21T04:37:48;13.20;99.90
16871;DHT22;8552;48.120;-1.456;2022-08-21T04:40:16;13.20;99.90
16871;DHT22;8552;48.120;-1.456;2022-08-21T04:42:48;13.20;99.90
16871;DHT22;8552;48.120;-1.456;2022-08-21T04:45:23;13.20;99.90
16871;DHT22;8552;48.120;-1.456;2022-08-21T04:47:51;13.30;99.90
16871;DHT22;8552;48.120;-1.456;2022-08-21T04:50:18;13.30;99.90
16871;DHT22;8552;48.120;-1.456;2022-08-21T04:52:44;13.20;99.90
16871;DHT22;8552;48.120;-1.456;2022-08-21T04:55:11;13.30;99.90
16871;DHT22;8552;48.120;-1.456;2022-08-21T04:57:37;13.30;99.90
16871;DHT22;8552;48.120;-1.456;2022-08-21T05:00:04;13.30;99.90
16871;DHT22;8552;48.120;-1.456;2022-08-21T05:02:31;13.30;99.90
16871;DHT22;8552;48.120;-1.456;2022-08-21T05:04:59;13.30;99.90
16871;DHT22;8552;48.120;-1.456;2022-08-21T05:07:28;13.20;99.90
16871;DHT22;8552;48.120;-1.456;2022-08-21T05:09:55;13.20;99.90
16871;DHT22;8552;48.120;-1.456;2022-08-21T05:12:21;13.20;99.90
16871;DHT22;8552;48.120;-1.456;2022-08-21T05:14:47;13.20;99.90
16871;DHT22;8552;48.120;-1.456;2022-08-21T05:17:13;13.20;99.90
16871;DHT22;8552;48.120;-1.456;2022-08-21T05:19:39;13.30;99.90
16871;DHT22;8552;48.120;-1.456;2022-08-21T05:22:05;13.20;99.90
16871;DHT22;8552;48.120;-1.456;2022-08-21T05:24:32;13.20;99.90
16871;DHT22;8552;48.120;-1.456;2022-08-21T05:26:58;13.30;99.90
16871;DHT22;8552;48.120;-1.456;2022-08-21T05:29:24;13.30;99.90
16871;DHT22;8552;48.120;-1.456;2022-08-21T05:31:50;13.30;99.90
16871;DHT22;8552;48.120;-1.456;2022-08-21T05:34:20;13.30;99.90
16871;DHT22;8552;48.120;-1.456;2022-08-21T05:36:46;13.30;99.90
16871;DHT22;8552;48.120;-1.456;2022-08-21T05:39:12;13.40;99.90
16871;DHT22;8552;48.120;-1.456;2022-08-21T05:41:38;13.40;99.90
16871;DHT22;8552;48.120;-1.456;2022-08-21T05:44:04;13.40;99.90
16871;DHT22;8552;48.120;-1.456;2022-08-21T05:46:29;13.50;99.90
16871;DHT22;8552;48.120;-1.456;2022-08-21T05:48:55;13.50;99.90
16871;DHT22;8552;48.120;-1.456;2022-08-21T05:51:21;13.50;99.90
16871;DHT22;8552;48.120;-1.456;2022-08-21T05:53:47;13.60;99.90
16871;DHT22;8552;48.120;-1.456;2022-08-21T05:56:13;13.60;99.90
16871;DHT22;8552;48.120;-1.456;2022-08-21T05:58:39;13.60;99.90
16871;DHT22;8552;48.120;-1.456;2022-08-21T06:01:06;13.60;99.90
16871;DHT22;8552;48.120;-1.456;2022-08-21T06:03:36;13.70;99.90
16871;DHT22;8552;48.120;-1.456;2022-08-21T06:06:02;13.70;99.90
16871;DHT22;8552;48.120;-1.456;2022-08-21T06:08:28;13.80;99.90
16871;DHT22;8552;48.120;-1.456;2022-08-21T06:10:57;13.80;99.90
16871;DHT22;8552;48.120;-1.456;2022-08-21T06:13:24;13.90;99.90
16871;DHT22;8552;48.120;-1.456;2022-08-21T06:16:01;14.00;99.90
16871;DHT22;8552;48.120;-1.456;2022-08-21T06:18:27;14.00;99.90
16871;DHT22;8552;48.120;-1.456;2022-08-21T06:20:53;14.00;99.90
16871;DHT22;8552;48.120;-1.456;2022-08-21T06:23:18;14.10;99.90
16871;DHT22;8552;48.120;-1.456;2022-08-21T06:25:44;14.10;99.90
16871;DHT22;8552;48.120;-1.456;2022-08-21T06:28:10;14.10;99.90
16871;DHT22;8552;48.120;-1.456;2022-08-21T06:30:37;14.10;99.90
16871;DHT22;8552;48.120;-1.456;2022-08-21T06:33:04;14.20;99.90
16871;DHT22;8552;48.120;-1.456;2022-08-21T06:35:31;14.20;99.90
16871;DHT22;8552;48.120;-1.456;2022-08-21T06:37:57;14.30;99.90
16871;DHT22;8552;48.120;-1.456;2022-08-21T06:40:24;14.40;99.90
16871;DHT22;8552;48.120;-1.456;2022-08-21T06:42:50;14.50;99.90
16871;DHT22;8552;48.120;-1.456;2022-08-21T06:45:16;14.60;99.90
16871;DHT22;8552;48.120;-1.456;2022-08-21T06:47:41;14.70;99.90
16871;DHT22;8552;48.120;-1.456;2022-08-21T06:50:08;14.80;99.90
16871;DHT22;8552;48.120;-1.456;2022-08-21T06:52:35;14.90;99.90
16871;DHT22;8552;48.120;-1.456;2022-08-21T06:55:01;14.90;99.90
16871;DHT22;8552;48.120;-1.456;2022-08-21T06:57:26;15.00;99.90
16871;DHT22;8552;48.120;-1.456;2022-08-21T06:59:52;15.10;99.90
16871;DHT22;8552;48.120;-1.456;2022-08-21T07:02:18;15.20;99.90
16871;DHT22;8552;48.120;-1.456;2022-08-21T07:04:44;15.30;99.90
16871;DHT22;8552;48.120;-1.456;2022-08-21T07:07:09;15.30;99.90
16871;DHT22;8552;48.120;-1.456;2022-08-21T07:09:35;15.40;99.90
16871;DHT22;8552;48.120;-1.456;2022-08-21T07:12:02;15.50;99.90
16871;DHT22;8552;48.120;-1.456;2022-08-21T07:14:28;15.50;99.90
16871;DHT22;8552;48.120;-1.456;2022-08-21T07:16:53;15.70;99.90
16871;DHT22;8552;48.120;-1.456;2022-08-21T07:19:19;15.80;99.90
16871;DHT22;8552;48.120;-1.456;2022-08-21T07:21:46;15.90;99.90
16871;DHT22;8552;48.120;-1.456;2022-08-21T07:24:12;16.00;99.90
16871;DHT22;8552;48.120;-1.456;2022-08-21T07:26:37;16.10;99.90
16871;DHT22;8552;48.120;-1.456;2022-08-21T07:29:03;16.20;99.90
16871;DHT22;8552;48.120;-1.456;2022-08-21T07:31:29;16.30;99.90
16871;DHT22;8552;48.120;-1.456;2022-08-21T07:33:56;16.30;99.90
16871;DHT22;8552;48.120;-1.456;2022-08-21T07:36:22;16.50;99.90
16871;DHT22;8552;48.120;-1.456;2022-08-21T07:38:47;16.50;99.90
16871;DHT22;8552;48.120;-1.456;2022-08-21T07:41:22;16.60;99.90
16871;DHT22;8552;48.120;-1.456;2022-08-21T07:43:49;16.70;99.90
16871;DHT22;8552;48.120;-1.456;2022-08-21T07:46:15;16.80;99.90
16871;DHT22;8552;48.120;-1.456;2022-08-21T07:48:41;17.00;99.90
16871;DHT22;8552;48.120;-1.456;2022-08-21T07:51:09;17.10;99.90
16871;DHT22;8552;48.120;-1.456;2022-08-21T07:53:37;17.30;99.90
16871;DHT22;8552;48.120;-1.456;2022-08-21T07:56:04;17.30;99.90
16871;DHT22;8552;48.120;-1.456;2022-08-21T07:58:31;17.30;99.90
16871;DHT22;8552;48.120;-1.456;2022-08-21T08:00:56;17.50;99.90
16871;DHT22;8552;48.120;-1.456;2022-08-21T08:03:22;17.60;99.90
16871;DHT22;8552;48.120;-1.456;2022-08-21T08:05:49;17.70;99.90
16871;DHT22;8552;48.120;-1.456;2022-08-21T08:08:14;17.70;99.90
16871;DHT22;8552;48.120;-1.456;2022-08-21T08:10:41;17.70;99.90
16871;DHT22;8552;48.120;-1.456;2022-08-21T08:13:06;17.80;99.90
16871;DHT22;8552;48.120;-1.456;2022-08-21T08:15:32;17.80;99.90
16871;DHT22;8552;48.120;-1.456;2022-08-21T08:17:58;17.70;99.90
16871;DHT22;8552;48.120;-1.456;2022-08-21T08:20:25;17.80;99.90
16871;DHT22;8552;48.120;-1.456;2022-08-21T08:22:52;17.90;99.90
16871;DHT22;8552;48.120;-1.456;2022-08-21T08:25:19;18.00;99.90
16871;DHT22;8552;48.120;-1.456;2022-08-21T08:27:44;18.20;99.90
16871;DHT22;8552;48.120;-1.456;2022-08-21T08:30:12;18.20;99.90
16871;DHT22;8552;48.120;-1.456;2022-08-21T08:32:38;18.30;99.90
16871;DHT22;8552;48.120;-1.456;2022-08-21T08:35:06;18.40;99.90
16871;DHT22;8552;48.120;-1.456;2022-08-21T08:37:32;18.50;99.90
16871;DHT22;8552;48.120;-1.456;2022-08-21T08:39:59;18.60;99.90
16871;DHT22;8552;48.120;-1.456;2022-08-21T08:42:32;18.70;99.90
16871;DHT22;8552;48.120;-1.456;2022-08-21T08:45:05;18.80;99.90
16871;DHT22;8552;48.120;-1.456;2022-08-21T08:47:33;18.90;99.90
16871;DHT22;8552;48.120;-1.456;2022-08-21T08:50:22;19.10;99.90
16871;DHT22;8552;48.120;-1.456;2022-08-21T08:52:54;19.40;99.90
16871;DHT22;8552;48.120;-1.456;2022-08-21T08:55:32;19.50;99.90
16871;DHT22;8552;48.120;-1.456;2022-08-21T08:57:59;19.70;99.90
16871;DHT22;8552;48.120;-1.456;2022-08-21T09:00:25;19.70;99.90
16871;DHT22;8552;48.120;-1.456;2022-08-21T09:02:56;19.90;99.90
16871;DHT22;8552;48.120;-1.456;2022-08-21T09:05:28;20.10;99.90
16871;DHT22;8552;48.120;-1.456;2022-08-21T09:08:20;20.20;99.90
16871;DHT22;8552;48.120;-1.456;2022-08-21T09:19:15;20.50;99.90
16871;DHT22;8552;48.120;-1.456;2022-08-21T09:24:40;20.70;99.90
16871;DHT22;8552;48.120;-1.456;2022-08-21T09:27:11;20.80;99.90
16871;DHT22;8552;48.120;-1.456;2022-08-21T09:29:49;21.00;99.90
16871;DHT22;8552;48.120;-1.456;2022-08-21T09:32:36;21.00;99.90
16871;DHT22;8552;48.120;-1.456;2022-08-21T09:37:33;21.00;99.90
16871;DHT22;8552;48.120;-1.456;2022-08-21T09:40:02;21.10;99.90
16871;DHT22;8552;48.120;-1.456;2022-08-21T09:42:30;21.20;99.90
16871;DHT22;8552;48.120;-1.456;2022-08-21T09:45:18;21.30;99.90
16871;DHT22;8552;48.120;-1.456;2022-08-21T09:47:44;21.40;99.90
16871;DHT22;8552;48.120;-1.456;2022-08-21T09:50:28;21.50;99.90
16871;DHT22;8552;48.120;-1.456;2022-08-21T09:52:58;21.50;99.90
16871;DHT22;8552;48.120;-1.456;2022-08-21T09:56:04;21.50;99.90
16871;DHT22;8552;48.120;-1.456;2022-08-21T09:58:50;21.50;99.90
16871;DHT22;8552;48.120;-1.456;2022-08-21T10:01:21;21.70;99.90
16871;DHT22;8552;48.120;-1.456;2022-08-21T10:03:48;21.70;99.90
16871;DHT22;8552;48.120;-1.456;2022-08-21T10:06:27;21.90;99.90
16871;DHT22;8552;48.120;-1.456;2022-08-21T10:09:13;22.00;99.90
16871;DHT22;8552;48.120;-1.456;2022-08-21T10:11:40;22.20;99.90
16871;DHT22;8552;48.120;-1.456;2022-08-21T10:17:27;22.40;99.90
16871;DHT22;8552;48.120;-1.456;2022-08-21T10:20:07;22.50;99.90
16871;DHT22;8552;48.120;-1.456;2022-08-21T10:25:07;22.80;99.90
16871;DHT22;8552;48.120;-1.456;2022-08-21T10:27:53;22.90;99.90
16871;DHT22;8552;48.120;-1.456;2022-08-21T10:33:54;22.80;99.90
16871;DHT22;8552;48.120;-1.456;2022-08-21T10:36:22;22.80;99.90
16871;DHT22;8552;48.120;-1.456;2022-08-21T10:44:38;22.80;99.90
16871;DHT22;8552;48.120;-1.456;2022-08-21T10:55:19;22.50;99.90
16871;DHT22;8552;48.120;-1.456;2022-08-21T10:58:04;22.50;99.90
16871;DHT22;8552;48.120;-1.456;2022-08-21T11:03:28;22.90;99.90
16871;DHT22;8552;48.120;-1.456;2022-08-21T11:06:22;23.00;99.90
16871;DHT22;8552;48.120;-1.456;2022-08-21T11:08:52;22.90;99.90
16871;DHT22;8552;48.120;-1.456;2022-08-21T11:11:27;22.80;99.90
16871;DHT22;8552;48.120;-1.456;2022-08-21T11:16:49;22.80;99.90
16871;DHT22;8552;48.120;-1.456;2022-08-21T11:19:42;22.60;99.90
16871;DHT22;8552;48.120;-1.456;2022-08-21T11:24:56;22.60;99.90
16871;DHT22;8552;48.120;-1.456;2022-08-21T11:30:10;22.40;99.90
16871;DHT22;8552;48.120;-1.456;2022-08-21T11:40:34;22.20;99.90
16871;DHT22;8552;48.120;-1.456;2022-08-21T11:45:49;22.10;99.90
16871;DHT22;8552;48.120;-1.456;2022-08-21T11:50:43;22.10;99.90
16871;DHT22;8552;48.120;-1.456;2022-08-21T11:53:14;22.10;99.90
16871;DHT22;8552;48.120;-1.456;2022-08-21T11:55:56;22.10;99.90
16871;DHT22;8552;48.120;-1.456;2022-08-21T11:58:35;22.10;99.90
16871;DHT22;8552;48.120;-1.456;2022-08-21T12:01:15;22.10;99.90
16871;DHT22;8552;48.120;-1.456;2022-08-21T12:03:54;22.10;99.90
16871;DHT22;8552;48.120;-1.456;2022-08-21T12:06:32;22.10;99.90
16871;DHT22;8552;48.120;-1.456;2022-08-21T12:09:08;22.10;99.90
16871;DHT22;8552;48.120;-1.456;2022-08-21T12:11:46;21.90;99.90
16871;DHT22;8552;48.120;-1.456;2022-08-21T12:14:16;21.70;99.90
16871;DHT22;8552;48.120;-1.456;2022-08-21T12:16:46;21.70;99.90
16871;DHT22;8552;48.120;-1.456;2022-08-21T12:26:59;21.50;99.90
16871;DHT22;8552;48.120;-1.456;2022-08-21T12:32:19;21.20;99.90
16871;DHT22;8552;48.120;-1.456;2022-08-21T12:34:53;21.00;99.90
16871;DHT22;8552;48.120;-1.456;2022-08-21T12:40:04;20.30;99.90
16871;DHT22;8552;48.120;-1.456;2022-08-21T12:42:45;20.30;99.90
16871;DHT22;8552;48.120;-1.456;2022-08-21T12:45:42;20.30;99.90
16871;DHT22;8552;48.120;-1.456;2022-08-21T12:51:08;20.20;99.90
16871;DHT22;8552;48.120;-1.456;2022-08-21T12:56:17;20.40;99.90
16871;DHT22;8552;48.120;-1.456;2022-08-21T12:58:47;20.30;99.90
16871;DHT22;8552;48.120;-1.456;2022-08-21T13:01:27;20.20;99.90
16871;DHT22;8552;48.120;-1.456;2022-08-21T13:04:00;20.20;99.90
16871;DHT22;8552;48.120;-1.456;2022-08-21T13:06:28;20.20;99.90
16871;DHT22;8552;48.120;-1.456;2022-08-21T13:09:04;20.20;99.90
16871;DHT22;8552;48.120;-1.456;2022-08-21T13:11:31;20.30;99.90
16871;DHT22;8552;48.120;-1.456;2022-08-21T13:13:57;20.50;99.90
16871;DHT22;8552;48.120;-1.456;2022-08-21T13:16:27;20.40;99.90
16871;DHT22;8552;48.120;-1.456;2022-08-21T13:18:58;20.60;99.90
16871;DHT22;8552;48.120;-1.456;2022-08-21T13:21:34;20.70;99.90
16871;DHT22;8552;48.120;-1.456;2022-08-21T13:24:22;20.80;99.90
16871;DHT22;8552;48.120;-1.456;2022-08-21T13:26:49;20.70;99.90
16871;DHT22;8552;48.120;-1.456;2022-08-21T13:29:19;20.70;99.90
16871;DHT22;8552;48.120;-1.456;2022-08-21T13:31:59;20.80;99.90
16871;DHT22;8552;48.120;-1.456;2022-08-21T13:34:29;20.80;99.90
16871;DHT22;8552;48.120;-1.456;2022-08-21T13:36:58;20.90;99.90
16871;DHT22;8552;48.120;-1.456;2022-08-21T13:39:24;20.80;99.90
16871;DHT22;8552;48.120;-1.456;2022-08-21T13:41:57;20.70;99.90
16871;DHT22;8552;48.120;-1.456;2022-08-21T13:44:36;20.70;99.90
16871;DHT22;8552;48.120;-1.456;2022-08-21T13:47:05;20.70;99.90
16871;DHT22;8552;48.120;-1.456;2022-08-21T13:49:34;20.50;99.90
16871;DHT22;8552;48.120;-1.456;2022-08-21T13:52:02;20.40;99.90
16871;DHT22;8552;48.120;-1.456;2022-08-21T13:54:40;20.40;99.90
16871;DHT22;8552;48.120;-1.456;2022-08-21T13:57:17;20.50;99.90
16871;DHT22;8552;48.120;-1.456;2022-08-21T13:59:43;20.50;99.90
16871;DHT22;8552;48.120;-1.456;2022-08-21T14:02:18;20.60;99.90
16871;DHT22;8552;48.120;-1.456;2022-08-21T14:04:56;20.40;99.90
16871;DHT22;8552;48.120;-1.456;2022-08-21T14:07:33;20.40;99.90
16871;DHT22;8552;48.120;-1.456;2022-08-21T14:15:21;20.70;99.90
16871;DHT22;8552;48.120;-1.456;2022-08-21T14:17:48;20.50;99.90
16871;DHT22;8552;48.120;-1.456;2022-08-21T14:20:34;20.60;99.90
16871;DHT22;8552;48.120;-1.456;2022-08-21T14:23:00;20.70;99.90
16871;DHT22;8552;48.120;-1.456;2022-08-21T14:25:30;20.60;99.90
16871;DHT22;8552;48.120;-1.456;2022-08-21T14:28:27;20.60;99.90
16871;DHT22;8552;48.120;-1.456;2022-08-21T14:30:55;20.60;99.90
16871;DHT22;8552;48.120;-1.456;2022-08-21T14:33:32;20.70;99.90
16871;DHT22;8552;48.120;-1.456;2022-08-21T14:35:58;20.60;99.90
16871;DHT22;8552;48.120;-1.456;2022-08-21T14:38:26;20.60;99.90
16871;DHT22;8552;48.120;-1.456;2022-08-21T14:40:55;20.60;99.90
16871;DHT22;8552;48.120;-1.456;2022-08-21T14:43:21;20.60;99.90
16871;DHT22;8552;48.120;-1.456;2022-08-21T14:45:47;20.60;99.90
16871;DHT22;8552;48.120;-1.456;2022-08-21T14:48:13;20.50;99.90
16871;DHT22;8552;48.120;-1.456;2022-08-21T14:50:39;20.50;99.90
16871;DHT22;8552;48.120;-1.456;2022-08-21T14:53:05;20.40;99.90
16871;DHT22;8552;48.120;-1.456;2022-08-21T14:55:31;20.50;99.90
16871;DHT22;8552;48.120;-1.456;2022-08-21T14:58:20;20.50;99.90
16871;DHT22;8552;48.120;-1.456;2022-08-21T15:00:47;20.50;99.90
16871;DHT22;8552;48.120;-1.456;2022-08-21T15:03:13;20.60;99.90
16871;DHT22;8552;48.120;-1.456;2022-08-21T15:05:38;20.60;99.90
16871;DHT22;8552;48.120;-1.456;2022-08-21T15:08:04;20.50;99.90
16871;DHT22;8552;48.120;-1.456;2022-08-21T15:10:31;20.60;99.90
16871;DHT22;8552;48.120;-1.456;2022-08-21T15:12:58;20.60;99.90
16871;DHT22;8552;48.120;-1.456;2022-08-21T15:15:23;20.30;99.90
16871;DHT22;8552;48.120;-1.456;2022-08-21T15:17:49;20.20;99.90
16871;DHT22;8552;48.120;-1.456;2022-08-21T15:20:15;20.20;99.90
16871;DHT22;8552;48.120;-1.456;2022-08-21T15:22:40;20.20;99.90
16871;DHT22;8552;48.120;-1.456;2022-08-21T15:25:06;20.10;99.90
16871;DHT22;8552;48.120;-1.456;2022-08-21T15:27:32;20.20;99.90
16871;DHT22;8552;48.120;-1.456;2022-08-21T15:29:59;20.20;99.90
16871;DHT22;8552;48.120;-1.456;2022-08-21T15:32:27;20.20;99.90
16871;DHT22;8552;48.120;-1.456;2022-08-21T15:34:55;20.10;99.90
16871;DHT22;8552;48.120;-1.456;2022-08-21T15:37:21;20.00;99.90
16871;DHT22;8552;48.120;-1.456;2022-08-21T15:39:49;19.90;99.90
16871;DHT22;8552;48.120;-1.456;2022-08-21T15:42:15;19.90;99.90
16871;DHT22;8552;48.120;-1.456;2022-08-21T15:44:41;20.10;99.90
16871;DHT22;8552;48.120;-1.456;2022-08-21T15:47:15;20.20;99.90
16871;DHT22;8552;48.120;-1.456;2022-08-21T15:49:42;20.30;99.90
16871;DHT22;8552;48.120;-1.456;2022-08-21T15:52:12;20.20;99.90
16871;DHT22;8552;48.120;-1.456;2022-08-21T15:54:38;20.30;99.90
16871;DHT22;8552;48.120;-1.456;2022-08-21T15:57:04;20.30;99.90
16871;DHT22;8552;48.120;-1.456;2022-08-21T15:59:44;20.20;99.90
16871;DHT22;8552;48.120;-1.456;2022-08-21T16:02:14;20.30;99.90
16871;DHT22;8552;48.120;-1.456;2022-08-21T16:04:41;20.30;99.90
16871;DHT22;8552;48.120;-1.456;2022-08-21T16:07:06;20.20;99.90
16871;DHT22;8552;48.120;-1.456;2022-08-21T16:09:32;20.20;99.90
16871;DHT22;8552;48.120;-1.456;2022-08-21T16:11:59;20.20;99.90
16871;DHT22;8552;48.120;-1.456;2022-08-21T16:14:25;20.20;99.90
16871;DHT22;8552;48.120;-1.456;2022-08-21T16:16:52;20.20;99.90
16871;DHT22;8552;48.120;-1.456;2022-08-21T16:19:18;20.10;99.90
16871;DHT22;8552;48.120;-1.456;2022-08-21T16:21:46;20.10;99.90
16871;DHT22;8552;48.120;-1.456;2022-08-21T16:24:12;20.10;99.90
16871;DHT22;8552;48.120;-1.456;2022-08-21T16:26:37;20.10;99.90
16871;DHT22;8552;48.120;-1.456;2022-08-21T16:29:04;20.00;99.90
16871;DHT22;8552;48.120;-1.456;2022-08-21T16:31:31;19.90;99.90
16871;DHT22;8552;48.120;-1.456;2022-08-21T16:33:57;19.90;99.90
16871;DHT22;8552;48.120;-1.456;2022-08-21T16:36:24;19.90;99.90
16871;DHT22;8552;48.120;-1.456;2022-08-21T16:38:56;20.00;99.90
16871;DHT22;8552;48.120;-1.456;2022-08-21T16:41:31;20.00;99.90
16871;DHT22;8552;48.120;-1.456;2022-08-21T16:43:58;20.00;99.90
16871;DHT22;8552;48.120;-1.456;2022-08-21T16:46:25;20.10;99.90
16871;DHT22;8552;48.120;-1.456;2022-08-21T16:48:51;20.10;99.90
16871;DHT22;8552;48.120;-1.456;2022-08-21T16:51:17;20.10;99.90
16871;DHT22;8552;48.120;-1.456;2022-08-21T16:53:43;20.00;99.90
16871;DHT22;8552;48.120;-1.456;2022-08-21T16:56:11;20.00;99.90
16871;DHT22;8552;48.120;-1.456;2022-08-21T16:58:40;19.90;99.90
16871;DHT22;8552;48.120;-1.456;2022-08-21T17:01:10;19.80;99.90
16871;DHT22;8552;48.120;-1.456;2022-08-21T17:03:40;19.70;99.90
16871;DHT22;8552;48.120;-1.456;2022-08-21T17:06:08;19.70;99.90
16871;DHT22;8552;48.120;-1.456;2022-08-21T17:08:34;19.60;99.90